Terminal Aerodrome Forecast
Issued by NWS

Home | Current Version | Previous Version | Text Only | Print | Product List | Glossary On
Versions: 1 2 3 4 5 6 7 8 9 10 11 12 13 14 15
539
FTUS43 KJKL 231122
TAFSJS
TAF
KSJS 231122Z 2312/2412 00000KT P6SM SCT010 BKN020
     FM231400 VRB03KT P6SM SCT020 BKN035
     FM231600 VRB03KT P6SM SCT040
     FM240000 VRB03KT P6SM SKC
     FM240900 00000KT 4SM BR SKC=

USA.gov is the U.S. government's official web portal to all federal, state and local government web resources and services.